KAFW

Fort Worth Alliance Airport

Fort Worth, Texas, USA
METAR KAFW 211253Z 20007KT 10SM OVC300 28/17 A2995 RMK AO2 SLP121 T02830167
Observed Flight Rules
Jul-21 @ 12:53 UTC (52 minutes ago) Visual Flight Rules
Wind Visibility Clouds
200° at 7 knots 10 miles
  • Overcast at 30,000' AGL
Temperatures Readings
Current 28°C / 82°F
Dewpoint 17°C / 63°F
Humidity 51%
Altimeter 29.95" Hg
Pressure 1012.1 hPa
Elevation 233
METAR KAFW 211253Z 20007KT 10SM OVC300 28/17 A2995 RMK AO2 SLP121 T02830167
Observed Flight Rules
Jul-21 @ 12:53 UTC
(52 minutes ago)
VFR
Wind Visibility
200° at 7 knots 10 miles
Clouds
  • Overcast at 30,000' AGL
Temperature Dewpoint
28°C / 82°F 17°C / 63°F
Humidity Altimeter Pressure
51% 29.95" Hg 1012.1 hPa